Time;durP1;ratioP1;P1;durP2;ratioP2;P2;SDS_P1;SDS_P2;PMS_P1;PMS_P2;Temp;Humidity;BMP_temperature;BMP_pressure;BME280_temperature;BME280_humidity;BME280_pressure;Samples;Min_cycle;Max_cycle;Signal;HPM_P1;HPM_P2
2023/03/06 00:00:44;;;;;;;2.57;2.37;;;15.60;57.90;16.60;100035.00;;;;5028900;28;20224;-47
2023/03/06 00:03:10;;;;;;;2.50;2.30;;;15.60;57.90;16.60;99970.00;;;;5029054;28;20175;-45
2023/03/06 00:05:35;;;;;;;2.43;2.23;;;15.60;58.00;16.60;100041.00;;;;5028838;28;20203;-47
2023/03/06 00:08:01;;;;;;;2.83;2.30;;;15.50;58.00;16.60;100032.00;;;;5028748;28;20167;-45
2023/03/06 00:10:28;;;;;;;3.63;2.50;;;15.60;58.10;16.60;100035.00;;;;5028225;28;20203;-45
2023/03/06 00:12:56;;;;;;;3.93;2.40;;;15.50;58.00;16.50;100035.00;;;;5028441;28;20195;-46
2023/03/06 00:15:22;;;;;;;2.40;2.13;;;15.50;58.00;16.50;100035.00;;;;5028561;28;20185;-45
2023/03/06 00:17:48;;;;;;;2.30;2.10;;;15.50;58.00;16.50;100027.00;;;;5028716;28;20174;-47
2023/03/06 00:20:14;;;;;;;2.53;2.30;;;15.50;58.00;16.50;100019.00;;;;5028622;28;20544;-47
2023/03/06 00:22:40;;;;;;;2.90;2.17;;;15.40;57.90;16.50;100028.00;;;;5028682;28;20198;-45
2023/03/06 00:25:06;;;;;;;2.47;2.27;;;15.40;57.90;16.50;100028.00;;;;5028914;28;20203;-45
2023/03/06 00:27:32;;;;;;;3.63;2.30;;;15.40;57.90;16.50;100022.00;;;;5028708;28;20265;-46
2023/03/06 00:29:58;;;;;;;2.30;2.07;;;15.40;57.90;16.40;100020.00;;;;5028627;28;20218;-46
2023/03/06 00:32:24;;;;;;;2.40;2.20;;;15.40;57.90;16.40;100018.00;;;;5028386;28;20175;-45
2023/03/06 00:34:52;;;;;;;2.47;2.27;;;15.30;57.90;16.40;100008.00;;;;5028295;28;20712;-47
2023/03/06 00:37:18;;;;;;;2.37;2.17;;;15.30;58.00;16.40;100003.00;;;;5028092;28;20198;-47
2023/03/06 00:39:44;;;;;;;2.60;2.40;;;15.40;58.00;16.40;100010.00;;;;5026755;28;20167;-46
2023/03/06 00:42:09;;;;;;;2.40;2.20;;;15.30;57.90;16.40;100002.00;;;;5028251;28;20205;-45
2023/03/06 00:44:35;;;;;;;2.40;2.20;;;15.30;58.00;16.30;100000.00;;;;5028291;28;20254;-45
2023/03/06 00:47:01;;;;;;;2.30;2.10;;;15.30;58.00;16.30;99989.00;;;;5026980;28;20210;-46
2023/03/06 00:49:27;;;;;;;2.77;2.10;;;15.30;58.00;16.30;99980.00;;;;5027818;28;20230;-45
2023/03/06 00:51:52;;;;;;;2.03;1.93;;;15.30;58.10;16.30;99993.00;;;;5027644;28;20202;-45
2023/03/06 00:54:18;;;;;;;2.20;2.00;;;15.20;58.00;16.30;99987.00;;;;5027881;28;20253;-46
2023/03/06 00:56:44;;;;;;;2.77;2.07;;;15.20;58.00;16.30;99983.00;;;;5027723;28;20565;-45
2023/03/06 00:59:10;;;;;;;2.20;2.10;;;15.20;58.00;16.30;99978.00;;;;5027694;28;20232;-46
2023/03/06 01:01:36;;;;;;;2.20;2.10;;;15.20;58.00;16.20;99973.00;;;;5027785;28;20191;-45
2023/03/06 01:04:01;;;;;;;2.40;2.20;;;15.20;58.00;16.20;99970.00;;;;5027890;28;20254;-46
2023/03/06 01:06:27;;;;;;;2.40;2.20;;;15.20;57.90;16.20;99966.00;;;;5027833;28;20255;-46
2023/03/06 01:08:53;;;;;;;2.40;2.20;;;15.20;58.00;16.20;99979.00;;;;5027736;28;20411;-45
2023/03/06 01:11:19;;;;;;;2.40;2.20;;;15.20;57.90;16.20;99956.00;;;;5027455;28;20576;-46
2023/03/06 01:13:44;;;;;;;2.23;2.03;;;15.20;58.00;16.20;99958.00;;;;5027901;28;20175;-45
2023/03/06 01:16:13;;;;;;;2.33;2.13;;;15.10;58.00;16.20;99965.00;;;;5027819;28;20256;-47
2023/03/06 01:18:39;;;;;;;2.10;2.00;;;15.20;58.00;16.20;99950.00;;;;5027666;28;20171;-46
2023/03/06 01:21:05;;;;;;;2.10;2.00;;;15.20;58.00;16.10;99961.00;;;;5027473;28;20258;-45
2023/03/06 01:23:30;;;;;;;2.10;2.00;;;15.10;58.00;16.10;99949.00;;;;5027598;28;20183;-45
2023/03/06 01:25:56;;;;;;;2.30;2.10;;;15.10;58.00;16.10;99886.00;;;;5027627;28;20329;-45
2023/03/06 01:28:22;;;;;;;2.30;2.10;;;15.10;58.00;16.10;99949.00;;;;5027994;28;20181;-45
2023/03/06 01:30:48;;;;;;;2.50;2.13;;;15.10;58.00;16.10;99942.00;;;;5027613;28;20249;-46
2023/03/06 01:33:13;;;;;;;2.30;2.10;;;15.10;58.30;16.10;99947.00;;;;5027685;28;20175;-45
2023/03/06 01:35:39;;;;;;;2.47;2.20;;;15.00;58.30;16.10;99940.00;;;;5019311;28;20199;-45
2023/03/06 01:38:05;;;;;;;2.20;2.10;;;15.00;58.30;16.10;99944.00;;;;5027585;28;20778;-46
2023/03/06 01:40:33;;;;;;;1.93;1.83;;;15.00;58.30;16.10;99936.00;;;;5027613;28;20190;-46
2023/03/06 01:43:09;;;;;;;2.20;2.00;;;15.00;58.40;16.00;99929.00;;;;5027535;28;20175;-46
2023/03/06 01:45:35;;;;;;;2.30;2.10;;;14.90;58.30;16.00;99934.00;;;;5026195;28;20209;-47
2023/03/06 01:48:01;;;;;;;2.10;2.00;;;14.90;58.30;16.00;99933.00;;;;5027209;28;20197;-45
2023/03/06 01:50:26;;;;;;;2.10;2.00;;;14.90;58.40;16.00;99925.00;;;;5027074;28;20264;-46
2023/03/06 01:52:55;;;;;;;2.37;2.17;;;14.90;58.30;16.00;99927.00;;;;5026077;28;20179;-46
2023/03/06 01:55:25;;;;;;;2.43;2.10;;;14.90;58.30;16.00;99926.00;;;;5025941;28;20613;-46
2023/03/06 01:57:53;;;;;;;2.23;2.13;;;14.90;58.40;16.00;99918.00;;;;5025820;28;20176;-46
2023/03/06 02:00:25;;;;;;;2.23;2.10;;;14.90;58.30;16.00;99924.00;;;;5025930;28;20653;-45
2023/03/06 02:03:10;;;;;;;2.80;2.00;;;14.80;58.30;15.70;99915.00;;;;5027452;28;20278;-45
2023/03/06 02:05:36;;;;;;;2.23;2.03;;;14.80;58.40;15.90;99914.00;;;;5026100;28;20252;-46
2023/03/06 02:08:02;;;;;;;2.30;2.10;;;14.90;58.50;15.90;99904.00;;;;5026180;28;20510;-45
2023/03/06 02:10:28;;;;;;;2.53;2.30;;;14.90;58.40;15.90;99913.00;;;;5025716;28;20202;-45
2023/03/06 02:12:54;;;;;;;2.20;2.00;;;14.80;58.40;15.90;99909.00;;;;5027475;28;20175;-54
2023/03/06 02:15:21;;;;;;;2.40;2.20;;;14.80;58.40;15.90;99905.00;;;;5030423;28;20334;-44
2023/03/06 02:17:47;;;;;;;2.40;2.20;;;14.80;58.40;15.90;99899.00;;;;5029574;28;20217;-45
2023/03/06 02:20:42;;;;;;;2.00;1.90;;;14.80;58.30;15.90;99896.00;;;;5029714;28;20178;-45
2023/03/06 02:23:27;;;;;;;1.90;1.80;;;14.80;58.40;15.80;99901.00;;;;5029445;28;20681;-47
2023/03/06 02:25:52;;;;;;;2.07;1.90;;;14.70;58.30;15.80;99897.00;;;;5029319;28;20278;-46
2023/03/06 02:28:20;;;;;;;2.00;1.90;;;14.80;58.40;15.80;99891.00;;;;5029290;28;20266;-47
2023/03/06 02:30:47;;;;;;;2.50;2.30;;;14.70;58.30;15.80;99887.00;;;;5030157;28;20300;-46
2023/03/06 02:33:15;;;;;;;2.30;2.10;;;14.70;58.30;15.80;99894.00;;;;5030637;28;20557;-45
2023/03/06 02:35:46;;;;;;;2.33;2.13;;;14.70;58.30;15.80;99892.00;;;;5028940;28;20553;-46
2023/03/06 02:38:14;;;;;;;2.30;2.10;;;14.70;58.40;15.80;99886.00;;;;5029202;28;20197;-45
2023/03/06 02:40:41;;;;;;;1.97;1.87;;;14.70;58.40;15.70;99886.00;;;;5028822;28;20262;-46
2023/03/06 02:43:07;;;;;;;2.20;2.10;;;14.70;58.40;15.70;99874.00;;;;5028974;28;20167;-46
2023/03/06 02:45:44;;;;;;;2.30;2.10;;;14.70;58.50;15.70;99887.00;;;;5029112;28;20252;-47
2023/03/06 02:48:11;;;;;;;2.40;2.20;;;14.70;58.40;15.70;99868.00;;;;5029119;28;20528;-47
2023/03/06 02:50:37;;;;;;;2.20;2.10;;;14.60;58.40;15.70;99869.00;;;;5029922;28;20226;-46
2023/03/06 02:53:03;;;;;;;2.20;2.10;;;14.60;58.50;15.70;99869.00;;;;5030360;28;20760;-46
2023/03/06 02:55:29;;;;;;;2.17;1.97;;;14.70;58.60;15.70;99860.00;;;;5030203;28;20175;-44
2023/03/06 02:57:55;;;;;;;2.40;2.20;;;14.70;58.50;15.70;99867.00;;;;5030548;28;20171;-45
2023/03/06 03:00:21;;;;;;;2.17;2.03;;;14.70;58.40;15.70;99868.00;;;;5030156;28;20182;-46
2023/03/06 03:02:47;;;;;;;2.37;2.17;;;14.80;58.40;15.70;99864.00;;;;5029801;28;20190;-46
2023/03/06 03:05:13;;;;;;;2.10;2.00;;;14.80;58.30;15.70;99866.00;;;;5030325;28;20654;-44
2023/03/06 03:07:38;;;;;;;2.00;1.90;;;14.90;58.20;15.70;99852.00;;;;5030135;28;20187;-46
2023/03/06 03:10:05;;;;;;;2.03;1.93;;;14.90;58.20;15.80;99853.00;;;;5031574;28;20332;-46
2023/03/06 03:12:31;;;;;;;2.03;1.93;;;15.00;58.80;15.80;99853.00;;;;5034725;28;20665;-47
2023/03/06 03:14:57;;;;;;;2.20;2.00;;;15.00;58.20;15.80;99860.00;;;;5031707;28;20242;-47
2023/03/06 03:17:23;;;;;;;2.30;2.10;;;15.00;58.10;15.90;99851.00;;;;5032459;28;20579;-46
2023/03/06 03:19:48;;;;;;;2.30;2.10;;;15.10;58.20;15.90;99848.00;;;;5035650;28;20256;-46
2023/03/06 03:22:14;;;;;;;2.10;2.00;;;15.10;58.20;15.90;99843.00;;;;5035355;28;20191;-46
2023/03/06 03:24:41;;;;;;;1.97;1.87;;;15.10;58.10;15.90;99838.00;;;;5034370;28;20171;-45
2023/03/06 03:27:07;;;;;;;1.90;1.80;;;15.20;58.10;15.90;99852.00;;;;5022089;28;20194;-45
2023/03/06 03:29:33;;;;;;;2.00;1.90;;;15.20;58.10;16.00;99846.00;;;;5029787;28;20685;-45
2023/03/06 03:31:58;;;;;;;2.10;2.00;;;15.20;58.10;16.00;99847.00;;;;5029737;28;20170;-45
2023/03/06 03:34:24;;;;;;;2.03;1.93;;;15.20;58.10;15.80;99848.00;;;;5030146;28;20660;-46
2023/03/06 03:36:50;;;;;;;2.00;1.90;;;15.20;58.10;16.00;99839.00;;;;5027385;28;20194;-46
2023/03/06 03:39:16;;;;;;;2.23;2.10;;;15.20;58.00;16.00;99842.00;;;;5024230;28;20618;-47
2023/03/06 03:41:41;;;;;;;2.17;2.07;;;15.20;58.00;16.00;99848.00;;;;5029381;28;20618;-47
2023/03/06 03:44:08;;;;;;;2.27;2.10;;;15.30;58.00;16.00;99840.00;;;;5029569;28;20178;-46
2023/03/06 03:46:33;;;;;;;2.27;1.93;;;15.30;58.10;16.00;99838.00;;;;5029477;28;20241;-46
2023/03/06 03:48:59;;;;;;;2.20;2.00;;;15.20;58.00;16.00;99830.00;;;;5029228;28;20206;-46
2023/03/06 03:51:25;;;;;;;2.10;1.90;;;15.20;58.00;16.00;99833.00;;;;5029337;28;20183;-46
2023/03/06 03:53:51;;;;;;;2.40;2.20;;;15.20;58.00;16.00;99830.00;;;;5029055;28;20182;-46
2023/03/06 03:56:16;;;;;;;2.20;2.00;;;15.20;58.00;16.00;99837.00;;;;5028963;28;20194;-45
2023/03/06 03:58:42;;;;;;;2.20;2.10;;;15.20;58.00;16.00;99832.00;;;;5029116;28;20216;-45
2023/03/06 04:01:08;;;;;;;2.00;1.90;;;15.20;58.00;16.00;99827.00;;;;5029223;28;20182;-47
2023/03/06 04:03:33;;;;;;;2.20;2.00;;;15.20;58.00;16.00;99827.00;;;;5029247;28;20171;-46
2023/03/06 04:05:59;;;;;;;2.00;1.90;;;15.20;58.00;16.00;99820.00;;;;5029223;28;20898;-45
2023/03/06 04:08:25;;;;;;;2.10;1.90;;;15.20;58.00;16.00;99811.00;;;;5029193;28;20167;-45
2023/03/06 04:10:51;;;;;;;2.07;1.90;;;15.20;58.00;16.00;99689.00;;;;5028846;28;20483;-45
2023/03/06 04:13:19;;;;;;;1.97;1.87;;;15.20;58.00;16.00;99808.00;;;;5029162;28;20203;-45
2023/03/06 04:15:46;;;;;;;2.30;2.13;;;15.10;58.00;15.80;99800.00;;;;5028811;28;20221;-45
2023/03/06 04:18:12;;;;;;;2.10;2.00;;;15.20;58.00;16.00;99806.00;;;;5028949;28;20186;-47
2023/03/06 04:20:38;;;;;;;2.23;2.13;;;15.10;58.00;16.00;99799.00;;;;5028272;28;20175;-46
2023/03/06 04:23:04;;;;;;;2.03;1.93;;;15.10;57.90;16.00;99790.00;;;;5021601;28;20195;-45
2023/03/06 04:25:29;;;;;;;2.20;2.00;;;15.10;57.90;15.90;99784.00;;;;5028632;28;20197;-45
2023/03/06 04:27:55;;;;;;;2.73;2.17;;;15.10;58.00;15.90;99787.00;;;;5028533;28;20178;-45
2023/03/06 04:30:21;;;;;;;2.30;2.10;;;15.10;58.10;15.90;99777.00;;;;5028314;28;20661;-45
2023/03/06 04:32:47;;;;;;;2.83;2.10;;;15.10;58.30;15.90;99778.00;;;;5028406;28;20262;-45
2023/03/06 04:35:13;;;;;;;5.63;2.20;;;15.10;58.40;15.90;99775.00;;;;5028669;28;20170;-47
2023/03/06 04:37:38;;;;;;;5.03;2.10;;;15.10;58.60;15.90;99776.00;;;;5028345;28;20280;-47
2023/03/06 04:40:05;;;;;;;2.60;2.13;;;15.10;58.50;15.90;99769.00;;;;5028394;28;20241;-45
2023/03/06 04:42:30;;;;;;;2.73;2.10;;;15.10;58.60;15.90;99776.00;;;;5028193;28;20189;-47
2023/03/06 04:44:56;;;;;;;5.23;2.30;;;15.00;58.50;15.90;99769.00;;;;5028347;28;20175;-45
2023/03/06 04:47:22;;;;;;;3.20;2.13;;;15.00;58.60;15.90;99768.00;;;;5028770;28;20195;-46
2023/03/06 04:49:48;;;;;;;2.93;2.30;;;15.00;58.50;15.90;99753.00;;;;5028786;28;20578;-46
2023/03/06 04:52:13;;;;;;;3.13;2.23;;;15.00;58.40;15.90;99769.00;;;;5029153;28;20754;-45
2023/03/06 04:54:39;;;;;;;3.37;2.53;;;15.00;58.40;15.90;99762.00;;;;5029200;28;20175;-46
2023/03/06 04:57:05;;;;;;;3.47;2.60;;;15.00;58.30;15.80;99760.00;;;;5029117;28;20195;-46
2023/03/06 04:59:30;;;;;;;3.73;2.90;;;14.90;58.20;15.80;99757.00;;;;5028849;28;20258;-46
2023/03/06 05:01:56;;;;;;;2.93;2.67;;;14.90;58.10;15.80;99748.00;;;;5020644;28;20178;-46
2023/03/06 05:04:22;;;;;;;3.27;2.90;;;15.00;58.20;15.80;99757.00;;;;5029201;28;20185;-47
2023/03/06 05:06:48;;;;;;;4.73;3.03;;;14.90;58.00;15.80;99759.00;;;;5038825;28;20202;-45
2023/03/06 05:09:14;;;;;;;3.77;3.07;;;14.90;57.90;15.80;99758.00;;;;5048699;28;20199;-46
2023/03/06 05:11:39;;;;;;;3.40;3.10;;;14.90;57.80;15.70;99762.00;;;;5048847;28;20441;-46
2023/03/06 05:14:05;;;;;;;3.43;3.07;;;14.90;58.50;15.70;99765.00;;;;5031801;28;20175;-48
2023/03/06 05:16:31;;;;;;;3.97;3.20;;;14.80;57.70;15.70;99758.00;;;;5029944;28;20191;-45
2023/03/06 05:18:56;;;;;;;4.87;3.67;;;14.80;57.50;15.70;99752.00;;;;5029102;28;20171;-47
2023/03/06 05:21:22;;;;;;;4.63;3.70;;;14.80;57.40;15.70;99761.00;;;;5028894;28;20645;-45
2023/03/06 05:23:48;;;;;;;3.77;3.33;;;14.80;57.40;15.70;99760.00;;;;5028719;28;20183;-46
2023/03/06 05:26:14;;;;;;;3.87;3.30;;;14.80;57.40;15.70;99752.00;;;;5029062;28;20723;-46
2023/03/06 05:28:40;;;;;;;3.93;3.33;;;14.80;57.40;15.70;99758.00;;;;5028783;28;20186;-45
2023/03/06 05:31:06;;;;;;;3.90;2.90;;;14.80;57.50;15.60;99763.00;;;;5028203;28;20290;-46
2023/03/06 05:33:32;;;;;;;5.63;3.00;;;14.80;57.40;15.60;99758.00;;;;5028627;28;20198;-45
2023/03/06 05:35:58;;;;;;;4.67;3.17;;;14.80;57.40;15.60;99755.00;;;;5028438;28;20202;-47
2023/03/06 05:38:24;;;;;;;6.53;3.67;;;14.80;57.40;15.60;99756.00;;;;5028884;28;20341;-46
2023/03/06 05:40:50;;;;;;;3.97;3.10;;;14.80;57.50;15.60;99759.00;;;;5028485;28;20228;-46
2023/03/06 05:43:16;;;;;;;5.93;3.10;;;14.70;57.50;15.60;99759.00;;;;5028713;28;20546;-46
2023/03/06 05:45:41;;;;;;;8.17;3.70;;;14.80;57.70;15.60;99757.00;;;;5020210;28;20203;-47
2023/03/06 05:48:07;;;;;;;3.60;3.30;;;14.80;57.70;15.60;99754.00;;;;5016495;28;20172;-48
2023/03/06 05:50:33;;;;;;;4.80;3.77;;;14.80;57.70;15.60;99762.00;;;;5031983;28;20272;-46
2023/03/06 05:52:59;;;;;;;4.87;3.43;;;14.80;57.60;15.60;99763.00;;;;5032350;28;20198;-46
2023/03/06 05:55:24;;;;;;;4.90;3.83;;;14.80;57.50;15.60;99765.00;;;;5023591;28;20205;-45
2023/03/06 05:57:50;;;;;;;5.07;4.00;;;14.80;57.50;15.60;99772.00;;;;5030374;28;20175;-46
2023/03/06 06:00:17;;;;;;;5.77;4.10;;;14.80;57.40;15.60;99758.00;;;;5032596;28;20182;-47
2023/03/06 06:02:43;;;;;;;5.03;4.37;;;14.80;57.40;15.60;99755.00;;;;5031778;28;20171;-45
2023/03/06 06:05:09;;;;;;;5.23;4.50;;;14.80;57.40;15.60;99755.00;;;;5031784;28;20179;-45
2023/03/06 06:07:35;;;;;;;5.70;4.40;;;14.80;57.40;15.60;99744.00;;;;5031548;28;20191;-46
2023/03/06 06:10:01;;;;;;;10.07;4.67;;;14.80;57.40;15.60;99756.00;;;;5031507;28;20202;-46
2023/03/06 06:12:27;;;;;;;4.90;4.50;;;14.80;57.40;15.60;99747.00;;;;5031325;28;20868;-45
2023/03/06 06:14:52;;;;;;;6.50;4.37;;;14.80;57.40;15.60;99755.00;;;;5031623;28;20249;-45
2023/03/06 06:17:18;;;;;;;5.10;4.57;;;14.80;57.40;15.60;99752.00;;;;5031837;28;20496;-45
2023/03/06 06:19:44;;;;;;;4.50;4.10;;;14.80;57.40;15.60;99750.00;;;;5031663;28;20249;-47
2023/03/06 06:22:10;;;;;;;5.53;4.60;;;14.80;57.40;15.60;99752.00;;;;5031628;28;20735;-45
2023/03/06 06:24:35;;;;;;;6.53;3.87;;;14.80;57.40;15.50;99744.00;;;;5031097;28;20171;-45
2023/03/06 06:27:01;;;;;;;4.10;3.70;;;14.70;57.30;15.50;99750.00;;;;5031006;28;20252;-45
2023/03/06 06:29:27;;;;;;;4.50;4.10;;;14.70;57.30;15.50;99752.00;;;;5031906;28;20202;-45
2023/03/06 06:31:53;;;;;;;5.13;4.03;;;14.70;57.30;15.50;99754.00;;;;5032077;28;20676;-46
2023/03/06 06:34:19;;;;;;;4.30;3.90;;;14.70;57.30;15.50;99744.00;;;;5031484;28;20250;-46
2023/03/06 06:36:44;;;;;;;4.20;3.80;;;14.70;57.30;15.50;99749.00;;;;5030912;28;20195;-46
2023/03/06 06:39:12;;;;;;;4.17;3.87;;;14.70;57.50;15.50;99748.00;;;;5030943;28;20175;-47
2023/03/06 06:41:38;;;;;;;4.00;3.70;;;14.70;57.50;15.50;99745.00;;;;5029773;28;20676;-46
2023/03/06 06:44:10;;;;;;;4.40;4.00;;;14.70;57.50;15.50;99744.00;;;;5031251;28;20179;-46
2023/03/06 06:46:36;;;;;;;3.90;3.60;;;14.60;57.50;15.50;99751.00;;;;5030991;28;20194;-45
2023/03/06 06:49:02;;;;;;;3.90;3.60;;;14.60;57.50;15.50;99726.00;;;;5030858;28;20538;-45
2023/03/06 06:51:31;;;;;;;4.00;3.70;;;14.60;57.60;15.50;99751.00;;;;5031045;28;20175;-45
2023/03/06 06:53:59;;;;;;;4.73;3.90;;;14.60;57.60;15.50;99742.00;;;;5030975;28;20167;-45
2023/03/06 06:56:25;;;;;;;4.20;3.90;;;14.60;57.60;15.40;99749.00;;;;5030577;28;20190;-49
2023/03/06 06:58:52;;;;;;;4.10;3.80;;;14.60;57.60;15.40;99761.00;;;;5028839;28;20700;-46
2023/03/06 07:01:18;;;;;;;3.83;3.53;;;14.60;57.60;15.20;99750.00;;;;5025044;28;20565;-45
2023/03/06 07:03:43;;;;;;;3.50;3.20;;;14.60;57.60;15.40;99750.00;;;;5031060;28;20258;-47
2023/03/06 07:06:09;;;;;;;3.83;3.43;;;14.60;57.60;15.40;99758.00;;;;5030919;28;20226;-47
2023/03/06 07:08:35;;;;;;;4.07;3.70;;;14.60;57.60;15.40;99749.00;;;;5030411;28;20255;-49
2023/03/06 07:11:12;;;;;;;4.23;3.83;;;14.50;57.60;15.40;99758.00;;;;5030085;28;20286;-46
2023/03/06 07:13:38;;;;;;;3.80;3.50;;;14.50;57.60;15.40;99764.00;;;;5030987;28;20177;-47
2023/03/06 07:16:04;;;;;;;3.70;3.40;;;14.50;57.60;15.40;99762.00;;;;5032102;28;20330;-46
2023/03/06 07:18:30;;;;;;;3.70;3.40;;;14.50;57.60;15.30;99762.00;;;;5030126;28;20175;-46
2023/03/06 07:20:56;;;;;;;4.03;3.63;;;14.50;57.60;15.30;99767.00;;;;5030166;28;20171;-46
2023/03/06 07:23:22;;;;;;;3.73;3.43;;;14.50;57.60;15.30;99767.00;;;;5030176;28;20186;-46
2023/03/06 07:25:48;;;;;;;3.73;3.43;;;14.50;57.60;15.30;99759.00;;;;5030544;28;20190;-48
2023/03/06 07:28:14;;;;;;;3.63;3.33;;;14.50;57.60;15.30;99768.00;;;;5028585;28;20179;-46
2023/03/06 07:30:40;;;;;;;4.10;3.30;;;14.50;57.60;15.30;99772.00;;;;5021840;28;20358;-44
2023/03/06 07:33:06;;;;;;;3.80;3.50;;;14.40;57.60;15.30;99770.00;;;;5035824;28;20238;-47
2023/03/06 07:35:32;;;;;;;3.63;3.33;;;14.50;57.70;15.30;99765.00;;;;5035709;28;20773;-47
2023/03/06 07:37:57;;;;;;;3.67;3.37;;;14.40;57.60;15.30;99773.00;;;;5035052;28;20266;-47
2023/03/06 07:40:23;;;;;;;3.73;3.43;;;14.50;57.70;15.30;99774.00;;;;5030858;28;20279;-47
2023/03/06 07:42:52;;;;;;;3.80;3.50;;;14.40;57.60;15.30;99777.00;;;;5028438;28;20247;-47
2023/03/06 07:45:17;;;;;;;3.80;3.50;;;14.40;57.60;15.20;99707.00;;;;5024553;28;20187;-47
2023/03/06 07:47:43;;;;;;;3.67;3.37;;;14.40;57.70;15.20;99763.00;;;;5029398;28;20182;-46
2023/03/06 07:50:10;;;;;;;3.70;3.40;;;14.40;57.70;15.20;99767.00;;;;5028558;28;20260;-45
2023/03/06 07:52:36;;;;;;;3.90;3.60;;;14.40;57.60;15.20;99768.00;;;;5028512;28;20183;-45
2023/03/06 07:55:01;;;;;;;3.53;3.23;;;14.30;57.50;15.20;99764.00;;;;5029941;28;20183;-47
2023/03/06 07:57:27;;;;;;;4.03;3.60;;;14.40;57.90;15.20;99770.00;;;;5028395;28;20546;-46
2023/03/06 07:59:53;;;;;;;3.67;3.37;;;14.30;57.80;15.10;99774.00;;;;5029945;28;20660;-46
2023/03/06 08:02:18;;;;;;;3.60;3.30;;;14.30;57.90;15.20;99761.00;;;;5028081;28;20186;-45
2023/03/06 08:04:44;;;;;;;4.00;3.50;;;14.30;58.00;15.20;99770.00;;;;5029855;28;20479;-47
2023/03/06 08:07:10;;;;;;;3.77;3.47;;;14.40;58.00;15.20;99771.00;;;;5028101;28;20206;-47
2023/03/06 08:09:36;;;;;;;3.90;3.60;;;14.40;58.00;15.20;99769.00;;;;5029306;28;20211;-46
2023/03/06 08:12:02;;;;;;;3.57;3.27;;;14.40;57.90;15.00;99775.00;;;;5029391;28;20182;-47
2023/03/06 08:14:27;;;;;;;3.70;3.40;;;14.50;58.00;15.20;99774.00;;;;5031397;28;20258;-45
2023/03/06 08:16:56;;;;;;;3.43;3.07;;;14.50;57.90;15.30;99761.00;;;;5031283;28;20526;-47
2023/03/06 08:19:22;;;;;;;3.63;3.33;;;14.60;57.90;15.30;99767.00;;;;5030770;28;20258;-47
2023/03/06 08:21:48;;;;;;;3.50;3.20;;;14.60;57.80;15.40;99774.00;;;;5028900;28;20278;-46
2023/03/06 08:24:15;;;;;;;3.30;3.00;;;14.70;57.80;15.50;99774.00;;;;5029172;28;20796;-46
2023/03/06 08:26:41;;;;;;;3.50;3.20;;;14.80;57.80;15.60;99757.00;;;;5028721;28;20642;-45
2023/03/06 08:29:07;;;;;;;3.67;3.20;;;14.90;57.80;15.60;99768.00;;;;5028878;28;20207;-48
2023/03/06 08:31:40;;;;;;;3.00;2.80;;;15.00;57.90;15.70;99759.00;;;;5029040;28;20646;-48
2023/03/06 08:34:12;;;;;;;3.53;3.23;;;15.00;57.80;15.80;99769.00;;;;5022279;28;20265;-48
2023/03/06 08:36:38;;;;;;;3.17;2.93;;;15.20;57.80;15.90;99763.00;;;;5024899;28;20462;-45
2023/03/06 08:39:03;;;;;;;3.20;2.90;;;15.20;57.80;15.80;99753.00;;;;5027903;28;20179;-47
2023/03/06 08:41:29;;;;;;;3.70;2.90;;;15.40;57.90;16.10;99754.00;;;;5027900;28;20704;-46
2023/03/06 08:43:55;;;;;;;5.07;3.10;;;15.50;58.00;16.20;99760.00;;;;5028797;28;20650;-46
2023/03/06 08:46:23;;;;;;;4.83;2.93;;;15.50;58.20;16.30;99764.00;;;;5032184;28;20322;-46
2023/03/06 08:48:49;;;;;;;4.17;3.10;;;15.60;58.30;16.40;99763.00;;;;5027882;28;20304;-46
2023/03/06 08:51:15;;;;;;;4.20;3.00;;;15.70;58.20;16.50;99770.00;;;;5027273;28;20665;-47
2023/03/06 08:53:41;;;;;;;3.67;3.03;;;15.70;58.20;16.60;99760.00;;;;5027624;28;20250;-46
2023/03/06 08:56:07;;;;;;;3.87;3.10;;;15.80;58.20;16.70;99756.00;;;;5026259;28;20270;-48
2023/03/06 08:58:33;;;;;;;3.93;3.37;;;15.90;58.00;16.80;99761.00;;;;5027122;28;20971;-46
2023/03/06 09:00:59;;;;;;;3.43;3.13;;;16.10;58.00;16.90;99761.00;;;;5027998;28;20214;-48
2023/03/06 09:03:25;;;;;;;3.47;3.17;;;16.10;57.90;17.00;99751.00;;;;5029293;28;20210;-47
2023/03/06 09:05:51;;;;;;;3.03;2.83;;;16.20;57.90;17.00;99765.00;;;;5029038;28;20609;-46
2023/03/06 09:08:17;;;;;;;4.23;3.13;;;16.20;57.90;17.10;99759.00;;;;5029366;28;20206;-46
2023/03/06 09:10:46;;;;;;;3.70;3.30;;;16.30;57.80;17.20;99753.00;;;;5031122;28;20225;-46
2023/03/06 09:13:12;;;;;;;3.37;3.10;;;16.40;57.80;17.20;99751.00;;;;5028300;28;20183;-46
2023/03/06 09:15:37;;;;;;;3.30;3.00;;;16.40;57.60;17.30;99752.00;;;;5029472;28;20275;-45
2023/03/06 09:18:03;;;;;;;3.50;3.20;;;16.50;57.70;17.30;99758.00;;;;5029869;28;20253;-45
2023/03/06 09:20:29;;;;;;;3.57;3.10;;;16.60;57.60;17.40;99759.00;;;;5028547;28;20194;-47
2023/03/06 09:22:55;;;;;;;3.57;3.10;;;16.70;57.60;17.50;99753.00;;;;5029063;28;20207;-46
2023/03/06 09:25:22;;;;;;;3.20;2.90;;;16.80;57.60;17.50;99754.00;;;;5032197;28;20192;-48
2023/03/06 09:27:48;;;;;;;3.47;3.17;;;16.80;57.40;17.60;99764.00;;;;5033401;28;20309;-47
2023/03/06 09:30:14;;;;;;;3.03;2.73;;;16.90;57.30;17.60;99765.00;;;;5032934;28;20318;-46
2023/03/06 09:32:40;;;;;;;3.20;3.00;;;16.90;57.30;17.70;99762.00;;;;5032180;28;20192;-47
2023/03/06 09:35:06;;;;;;;3.20;2.90;;;17.00;57.20;17.70;99758.00;;;;5034026;28;20180;-48
2023/03/06 09:37:32;;;;;;;3.33;3.07;;;17.00;57.10;17.80;99754.00;;;;5033555;28;20825;-48
2023/03/06 09:39:57;;;;;;;3.07;2.87;;;17.00;57.10;17.80;99758.00;;;;5032939;28;20243;-47
2023/03/06 09:42:23;;;;;;;3.13;2.80;;;17.10;57.10;17.80;99759.00;;;;5033090;28;20204;-47
2023/03/06 09:44:57;;;;;;;3.70;3.13;;;17.10;57.10;17.80;99757.00;;;;5031827;28;20268;-46
2023/03/06 09:47:44;;;;;;;3.17;2.80;;;17.10;57.10;17.90;99761.00;;;;5031787;28;20283;-46
2023/03/06 09:50:29;;;;;;;3.30;2.87;;;17.10;57.10;17.80;99753.00;;;;5032234;28;20232;-47
2023/03/06 09:53:31;;;;;;;3.40;3.10;;;17.10;57.00;17.90;99761.00;;;;5029949;28;20189;-46
2023/03/06 09:56:02;;;;;;;3.47;3.17;;;17.10;57.00;17.90;99749.00;;;;5037572;28;20217;-46
2023/03/06 09:58:29;;;;;;;3.90;3.20;;;17.20;57.10;17.90;99758.00;;;;5032420;28;20280;-46
2023/03/06 10:01:20;;;;;;;5.60;3.10;;;17.20;57.00;17.90;99756.00;;;;5031079;28;20186;-46
2023/03/06 10:04:18;;;;;;;3.37;3.00;;;17.20;57.10;18.00;99749.00;;;;5031726;28;20175;-47
2023/03/06 10:06:50;;;;;;;3.30;3.00;;;17.20;57.20;18.00;99743.00;;;;5029635;28;20291;-46
2023/03/06 10:09:25;;;;;;;3.33;2.90;;;17.20;57.20;18.00;99754.00;;;;5031051;28;20271;-46
2023/03/06 10:11:59;;;;;;;5.03;3.30;;;17.20;57.30;18.00;99745.00;;;;5030367;28;20173;-47
2023/03/06 10:14:43;;;;;;;3.17;2.87;;;17.20;57.40;18.00;99743.00;;;;5031307;28;20196;-47
2023/03/06 10:17:17;;;;;;;4.70;3.37;;;17.20;57.30;18.00;99746.00;;;;5013074;28;20192;-45
2023/03/06 10:19:43;;;;;;;6.63;3.33;;;17.20;57.30;17.90;99743.00;;;;5030111;28;20268;-46
2023/03/06 10:22:24;;;;;;;5.47;3.70;;;17.20;57.50;18.00;99752.00;;;;5032161;28;20281;-47
2023/03/06 10:24:56;;;;;;;6.37;3.70;;;17.20;57.80;17.90;99744.00;;;;5032250;28;20945;-47
2023/03/06 10:27:36;;;;;;;5.47;3.87;;;17.10;58.20;17.90;99740.00;;;;5031201;28;20200;-46
2023/03/06 10:30:22;;;;;;;4.80;4.07;;;17.10;58.60;17.90;99739.00;;;;5033710;28;20194;-47
2023/03/06 10:32:57;;;;;;;5.67;3.70;;;17.10;59.30;17.90;99749.00;;;;5038201;28;20181;-47
2023/03/06 10:35:53;;;;;;;6.50;4.10;;;17.10;59.90;17.90;99758.00;;;;5038240;28;20197;-46
2023/03/06 10:38:26;;;;;;;4.00;3.60;;;17.10;60.70;17.90;99761.00;;;;5027983;28;20533;-46
2023/03/06 10:41:10;;;;;;;4.93;3.83;;;17.10;60.90;17.90;99758.00;;;;5031537;28;20186;-46
2023/03/06 10:43:38;;;;;;;4.27;3.70;;;17.10;61.80;17.90;99768.00;;;;5032226;28;20264;-50
2023/03/06 10:46:05;;;;;;;5.63;3.63;;;17.10;62.30;17.90;99763.00;;;;5031812;28;20252;-46
2023/03/06 10:48:37;;;;;;;8.63;4.17;;;17.00;62.60;17.90;99753.00;;;;5030710;28;20185;-47
2023/03/06 10:51:20;;;;;;;11.97;4.67;;;17.10;63.40;17.90;99760.00;;;;5030925;28;20213;-46
2023/03/06 10:54:18;;;;;;;9.80;4.50;;;17.00;63.90;17.90;99773.00;;;;5031423;28;20182;-46
2023/03/06 10:56:45;;;;;;;7.43;4.37;;;17.00;64.10;17.80;99771.00;;;;5027965;28;20202;-46